Time;durP1;ratioP1;P1;durP2;ratioP2;P2;SDS_P1;SDS_P2;PMS_P1;PMS_P2;Temp;Humidity;BMP_temperature;BMP_pressure;BME280_temperature;BME280_humidity;BME280_pressure;Samples;Min_cycle;Max_cycle;Signal;HPM_P1;HPM_P2
2023/03/26 05:01:44;;;;;;;;;0.33;0.00;;;;;12.56;100.00;55100.22;5323126;23;1119727;-83
2023/03/26 05:04:13;;;;;;;;;0.00;0.00;;;;;12.36;100.00;50520.47;4981119;28;45478;-84
2023/03/26 05:06:40;;;;;;;;;0.00;0.00;;;;;12.61;100.00;49325.13;4981137;28;45453;-84
2023/03/26 05:09:07;;;;;;;;;0.00;0.00;;;;;12.60;100.00;43200.13;4980629;28;46952;-85
2023/03/26 05:11:33;;;;;;;;;0.00;0.00;;;;;12.42;96.82;35482.13;4980477;28;45359;-84
2023/03/26 05:13:58;;;;;;;;;0.00;0.00;;;;;12.31;96.56;33288.22;4981092;28;45346;-83
2023/03/26 05:16:23;;;;;;;;;0.00;0.00;;;;;12.51;95.36;21226.97;4996402;28;45535;-83
2023/03/26 05:18:50;;;;;;;;;0.00;0.00;;;;;12.56;93.92;12394.44;5000335;28;47078;-84
2023/03/26 05:21:15;;;;;;;;;0.00;0.00;;;;;12.39;95.50;23911.34;5000151;28;45360;-84
2023/03/26 05:23:41;;;;;;;;;0.00;0.00;;;;;12.49;93.53;5856.88;4999691;28;45371;-84
2023/03/26 05:26:08;;;;;;;;;0.00;0.00;;;;;12.32;91.92;-8529.88;5000871;28;45540;-84
2023/03/26 05:28:34;;;;;;;;;0.33;0.00;;;;;12.55;89.74;-19546.75;4999849;28;45443;-84
2023/03/26 05:31:00;;;;;;;;;0.00;0.00;;;;;12.44;90.64;-14098.84;4981856;28;45396;-83
2023/03/26 05:33:25;;;;;;;;;0.00;0.00;;;;;12.51;89.64;-19545.69;5000157;28;45438;-83
2023/03/26 05:36:03;;;;;;;;;0.00;0.00;;;;;12.53;89.71;-19546.22;5000238;28;45322;-83
2023/03/26 05:38:29;;;;;;;;;0.00;0.00;;;;;12.37;89.74;-18964.56;5000023;28;46446;-83
2023/03/26 05:41:03;;;;;;;;;0.00;0.00;;;;;12.43;87.69;-19543.66;5000027;28;45336;-84
2023/03/26 05:43:29;;;;;;;;;0.00;0.00;;;;;12.49;86.66;-19545.13;5002768;28;45593;-83
2023/03/26 05:45:57;;;;;;;;;0.00;0.00;;;;;12.40;87.25;-19542.97;5016933;28;45601;-84
2023/03/26 05:48:23;;;;;;;;;1.00;0.00;;;;;11.98;86.70;-19531.94;5019552;28;47396;-84
2023/03/26 05:50:54;;;;;;;;;0.00;0.00;;;;;12.48;86.06;-19545.00;5019300;28;45359;-85
2023/03/26 05:53:20;;;;;;;;;0.00;0.00;;;;;12.48;84.91;-19544.88;5019462;28;45241;-84
2023/03/26 05:55:54;;;;;;;;;0.00;0.00;;;;;12.19;85.33;-19537.34;5019496;28;45530;-84
2023/03/26 05:58:20;;;;;;;;;0.00;0.00;;;;;12.48;84.88;-19544.88;5018958;28;46471;-83
2023/03/26 06:00:47;;;;;;;;;1.00;0.00;;;;;12.48;84.38;-19544.88;5018908;28;45374;-83
2023/03/26 06:03:15;;;;;;;;;0.00;0.00;;;;;12.16;83.16;-19536.66;5000449;28;45301;-83
2023/03/26 06:05:41;;;;;;;;;0.00;0.00;;;;;12.42;82.18;-19543.53;4998850;28;45515;-83
2023/03/26 06:08:07;;;;;;;;;0.00;0.00;;;;;12.38;82.03;-19542.44;5019424;28;47399;-84
2023/03/26 06:10:35;;;;;;;;;0.00;0.00;;;;;12.42;81.36;-19543.38;5019047;28;45289;-83
2023/03/26 06:13:01;;;;;;;;;0.00;0.00;;;;;12.30;82.09;-19540.16;5000966;28;45336;-84
2023/03/26 06:15:26;;;;;;;;;0.00;0.00;;;;;12.42;83.04;-19543.53;5019726;28;45269;-84
2023/03/26 06:17:51;;;;;;;;;0.00;0.00;;;;;12.08;82.13;-19534.50;5018967;28;46035;-84
2023/03/26 06:20:16;;;;;;;;;0.00;0.00;;;;;11.84;80.42;-19528.16;5019172;28;47467;-84
2023/03/26 06:22:42;;;;;;;;;0.00;0.00;;;;;12.19;80.89;-19537.47;5019191;28;45478;-84
2023/03/26 06:25:07;;;;;;;;;0.00;0.00;;;;;12.34;80.80;-19541.22;5019217;28;45638;-84
2023/03/26 06:27:33;;;;;;;;;1.00;0.00;;;;;12.35;81.04;-19541.63;5013953;28;46931;-84
2023/03/26 06:29:58;;;;;;;;;0.00;0.00;;;;;12.30;80.74;-19540.28;5016750;28;45416;-84
2023/03/26 06:32:23;;;;;;;;;1.00;0.00;;;;;12.30;80.54;-19540.16;5019269;28;45375;-84
2023/03/26 06:34:49;;;;;;;;;0.00;0.00;;;;;12.43;80.04;-19543.78;5019102;28;45486;-84
2023/03/26 06:37:15;;;;;;;;;0.00;0.00;;;;;12.37;78.96;-19542.03;5018512;28;45786;-84
2023/03/26 06:39:40;;;;;;;;;0.00;0.00;;;;;12.42;79.07;-19543.53;5000737;28;45375;-84
2023/03/26 06:42:06;;;;;;;;;0.67;0.00;;;;;12.35;79.02;-19541.63;5018655;28;45470;-82
2023/03/26 06:44:31;;;;;;;;;0.00;0.00;;;;;12.40;78.25;-19542.97;5019030;28;45526;-83
2023/03/26 06:46:56;;;;;;;;;0.00;0.00;;;;;12.41;79.34;-19543.13;5016708;28;46192;-84
2023/03/26 06:49:22;;;;;;;;;0.00;0.00;;;;;12.25;78.70;-19539.09;5015347;28;45407;-83
2023/03/26 06:51:47;;;;;;;;;0.00;0.00;;;;;12.17;77.86;-19536.78;5016516;28;45481;-84
2023/03/26 06:54:13;;;;;;;;;0.00;0.00;;;;;12.54;78.34;-19546.63;5019221;28;45375;-83
2023/03/26 06:56:38;;;;;;;;;0.00;0.00;;;;;12.34;76.79;-19541.38;5018157;28;45588;-83
2023/03/26 06:59:04;;;;;;;;;0.00;0.00;;;;;12.08;77.24;-19534.50;5018722;28;45296;-84
2023/03/26 07:01:29;;;;;;;;;1.00;0.00;;;;;12.26;76.86;-19539.22;5013306;28;45551;-84
2023/03/26 07:03:55;;;;;;;;;0.00;0.00;;;;;12.52;77.40;-19545.94;4998884;28;45337;-83
2023/03/26 07:06:20;;;;;;;;;0.00;0.00;;;;;12.63;77.61;-19549.03;4998606;28;45722;-83
2023/03/26 07:08:46;;;;;;;;;0.00;0.00;;;;;12.63;77.68;-19548.91;4998162;28;45525;-83
2023/03/26 07:11:11;;;;;;;;;0.00;0.00;;;;;12.51;77.46;-19545.81;4997718;28;45447;-84
2023/03/26 07:13:38;;;;;;;;;0.33;0.00;;;;;12.68;77.14;-19550.38;5006449;28;45611;-83
2023/03/26 07:16:05;;;;;;;;;0.00;0.00;;;;;12.70;77.00;-19550.78;5016521;28;46102;-84
2023/03/26 07:18:30;;;;;;;;;0.00;0.00;;;;;12.71;77.19;-19551.06;5000994;28;45492;-83
2023/03/26 07:20:56;;;;;;;;;0.00;0.00;;;;;12.63;75.81;-19549.03;5014768;28;45447;-84
2023/03/26 07:23:22;;;;;;;;;0.00;0.00;;;;;12.75;76.63;-19552.13;5000831;28;45694;-84
2023/03/26 07:25:48;;;;;;;;;0.00;0.00;;;;;12.77;75.73;-19552.53;5008718;28;46949;-84
2023/03/26 07:28:23;;;;;;;;;0.00;0.00;;;;;12.77;75.50;-19552.69;5007901;28;45300;-91
2023/03/26 07:31:17;;;;;;;;;0.00;0.00;;;;;12.68;75.40;-19550.38;5000444;28;45468;-85
2023/03/26 07:34:06;;;;;;;;;0.00;0.00;;;;;12.48;74.70;-19544.88;4973265;28;45464;-85
2023/03/26 07:36:42;;;;;;;;;0.00;0.00;;;;;12.79;74.70;-19553.09;4992034;28;45361;-85
2023/03/26 07:39:30;;;;;;;;;0.00;0.00;;;;;12.70;74.22;-19550.66;5014235;28;45451;-85
2023/03/26 07:42:27;;;;;;;;;0.00;0.00;;;;;12.41;74.45;-19543.13;5005073;28;45390;-86
2023/03/26 07:45:02;;;;;;;;;0.67;0.00;;;;;12.72;74.71;-19551.34;4959670;28;45534;-84
2023/03/26 07:47:31;;;;;;;;;0.00;0.00;;;;;12.71;74.83;-19551.06;4936392;28;46459;-84
2023/03/26 07:49:57;;;;;;;;;0.00;0.00;;;;;12.78;74.80;-19552.81;4958307;28;45346;-88
2023/03/26 07:52:24;;;;;;;;;0.00;0.00;;;;;12.67;74.29;-19550.00;4963401;28;45467;-86
2023/03/26 07:54:50;;;;;;;;;0.00;0.00;;;;;12.76;74.73;-19552.28;4962910;28;45617;-84
2023/03/26 07:57:27;;;;;;;;;0.67;0.00;;;;;12.91;74.37;-19556.31;4972124;28;45412;-87
2023/03/26 08:00:00;;;;;;;;;0.00;0.00;;;;;12.90;73.94;-19556.03;4963575;28;45372;-85
2023/03/26 08:02:49;;;;;;;;;1.00;0.00;;;;;12.96;73.75;-19557.66;4984588;28;45724;-86
2023/03/26 08:05:29;;;;;;;;;0.00;0.00;;;;;13.08;73.80;-19560.75;4989429;28;45590;-84
2023/03/26 08:08:04;;;;;;;;;0.00;0.00;;;;;13.23;73.66;-19564.66;4984201;28;45925;-83
2023/03/26 08:10:32;;;;;;;;;0.00;0.00;;;;;13.26;72.99;-19565.47;4976726;28;45451;-86
2023/03/26 08:13:06;;;;;;;;;0.00;0.00;;;;;13.32;73.49;-19566.94;4980462;28;45483;-85
2023/03/26 08:15:57;;;;;;;;;0.00;0.00;;;;;13.37;73.57;-19568.41;4977997;28;45506;-85
2023/03/26 08:18:26;;;;;;;;;0.00;0.00;;;;;13.43;73.16;-19569.91;4981569;28;46639;-86
2023/03/26 08:20:59;;;;;;;;;0.00;0.00;;;;;13.40;72.98;-19569.09;4963993;28;45451;-88
2023/03/26 08:23:27;;;;;;;;;0.00;0.00;;;;;13.48;72.62;-19571.38;5012084;28;45351;-90
2023/03/26 08:26:21;;;;;;;;;0.00;0.00;;;;;13.52;72.92;-19572.44;5015158;28;45328;-89
2023/03/26 08:29:26;;;;;;;;;0.00;0.00;;;;;13.32;72.36;-19567.06;4927076;28;45428;-92
2023/03/26 08:31:52;;;;;;;;;0.00;0.00;;;;;13.43;71.94;-19570.03;4930880;28;45544;-93
2023/03/26 08:34:17;;;;;;;;;0.00;0.00;;;;;13.40;71.66;-19569.09;4934566;28;45438;-89
2023/03/26 08:36:43;;;;;;;;;0.00;0.00;;;;;13.38;71.52;-19568.56;4926754;28;45652;-85
2023/03/26 08:39:08;;;;;;;;;0.00;0.00;;;;;13.29;71.66;-19566.41;4912748;28;46599;-86
2023/03/26 08:42:05;;;;;;;;;0.00;0.00;;;;;13.64;71.69;-19575.41;4923260;28;45506;-85
2023/03/26 08:44:57;;;;;;;;;0.00;0.00;;;;;13.76;71.14;-19578.63;4928131;28;45485;-88
2023/03/26 08:47:41;;;;;;;;;0.00;0.00;;;;;13.79;70.77;-19579.44;4927646;28;45287;-88
2023/03/26 08:50:44;;;;;;;;;1.00;0.00;;;;;13.55;71.12;-19573.00;4916875;28;45546;-87
2023/03/26 08:53:46;;;;;;;;;0.00;0.00;;;;;13.87;70.81;-19581.47;4919542;28;45641;-87
2023/03/26 08:56:11;;;;;;;;;0.00;0.00;;;;;13.87;70.36;-19581.59;4915977;28;45672;-88
2023/03/26 08:58:58;;;;;;;;;0.00;0.00;;;;;13.91;70.48;-19582.53;4919625;28;45550;-88
2023/03/26 09:02:01;;;;;;;;;0.00;0.00;;;;;13.89;69.48;-19582.13;4928725;28;47412;-88
2023/03/26 09:04:47;;;;;;;;;0.00;0.00;;;;;13.89;68.93;-19582.00;4915243;28;45505;-87
2023/03/26 09:07:40;;;;;;;;;0.00;0.00;;;;;13.90;69.46;-19582.25;5015098;28;45902;-88
2023/03/26 09:10:15;;;;;;;;;0.00;0.00;;;;;13.90;69.33;-19582.25;4997113;28;45500;-86
2023/03/26 09:13:04;;;;;;;;;0.00;0.00;;;;;13.93;68.53;-19583.06;5023109;28;45657;-89
2023/03/26 09:15:52;;;;;;;;;0.00;0.00;;;;;13.92;68.46;-19582.81;5013184;28;45423;-88
2023/03/26 09:18:17;;;;;;;;;0.00;0.00;;;;;13.91;67.27;-19582.53;5016862;28;47162;-85
2023/03/26 09:21:04;;;;;;;;;0.00;0.00;;;;;13.55;67.49;-19573.00;4998742;28;45505;-89
2023/03/26 09:24:00;;;;;;;;;0.00;0.00;;;;;13.74;67.02;-19578.09;5008156;28;47388;-88
2023/03/26 09:26:36;;;;;;;;;0.00;0.00;;;;;13.88;66.25;-19581.72;5010538;28;45419;-88
2023/03/26 09:29:07;;;;;;;;;0.00;0.00;;;;;13.88;66.25;-19581.88;5014267;28;45745;-87
2023/03/26 09:31:42;;;;;;;;;0.00;0.00;;;;;13.79;66.27;-19579.44;5013934;28;45564;-84
2023/03/26 09:34:13;;;;;;;;;0.00;0.00;;;;;13.92;66.07;-19582.81;5004226;28;46378;-84
2023/03/26 09:36:44;;;;;;;;;0.00;0.00;;;;;13.93;66.13;-19583.22;5012321;28;45536;-84
2023/03/26 09:39:30;;;;;;;;;0.00;0.00;;;;;13.94;66.55;-19583.47;5014446;28;45464;-88
2023/03/26 09:42:08;;;;;;;;;0.00;0.00;;;;;13.90;66.55;-19582.41;5019204;28;45478;-88
2023/03/26 09:45:17;;;;;;;;;0.00;0.00;;;;;13.27;66.12;-19565.72;5018640;28;46178;-88
2023/03/26 09:48:28;;;;;;;;;0.00;0.00;;;;;13.39;66.12;-19568.97;4927998;28;45556;-87
2023/03/26 09:54:36;;;;;;;;;0.00;0.00;;;;;14.04;65.71;-19586.03;4962580;22;45519;-89
2023/03/26 09:57:32;;;;;;;;;0.00;0.00;;;;;14.04;65.08;-19585.88;5005279;28;46229;-84
2023/03/26 10:00:06;;;;;;;;;0.00;0.00;;;;;14.03;65.25;-19585.63;5012559;28;45347;-84
2023/03/26 10:02:37;;;;;;;;;0.00;0.00;;;;;14.01;64.99;-19585.09;5019776;28;45589;-85
2023/03/26 10:05:27;;;;;;;;;0.00;0.00;;;;;14.00;65.34;-19584.81;5021811;28;45384;-84
2023/03/26 10:08:07;;;;;;;;;0.00;0.00;;;;;13.99;65.08;-19584.56;5004885;28;45340;-86
2023/03/26 10:10:51;;;;;;;;;0.00;0.00;;;;;13.98;65.19;-19584.28;5021807;28;45632;-84
2023/03/26 10:13:36;;;;;;;;;0.00;0.00;;;;;13.98;64.88;-19584.28;5024108;28;45545;-84
2023/03/26 10:16:24;;;;;;;;;0.00;0.00;;;;;13.99;64.83;-19584.69;5010050;28;45478;-83
2023/03/26 10:19:18;;;;;;;;;0.00;0.00;;;;;14.00;64.75;-19584.94;5008456;28;45992;-85
2023/03/26 10:22:09;;;;;;;;;0.00;0.00;;;;;14.01;63.61;-19585.22;5017043;28;45440;-86
2023/03/26 10:24:59;;;;;;;;;0.00;0.00;;;;;14.06;64.01;-19586.44;5030862;28;45527;-84
2023/03/26 10:27:46;;;;;;;;;0.67;0.00;;;;;13.98;64.35;-19584.41;5009272;28;46369;-84
2023/03/26 10:30:33;;;;;;;;;0.00;0.00;;;;;14.25;64.48;-19591.41;5027156;28;46353;-85
2023/03/26 10:33:24;;;;;;;;;0.00;0.00;;;;;14.47;63.97;-19597.16;5024599;28;45440;-83
2023/03/26 10:36:19;;;;;;;;;0.00;0.00;;;;;14.66;63.19;-19602.28;5030562;28;45484;-86
2023/03/26 10:39:06;;;;;;;;;0.00;0.00;;;;;15.12;62.37;-19614.34;5025532;28;45286;-83
2023/03/26 10:41:52;;;;;;;;;0.00;0.00;;;;;15.51;62.66;-19624.44;5004551;28;45889;-88
2023/03/26 10:44:44;;;;;;;;;0.00;0.00;;;;;15.69;61.24;-19629.25;5007352;28;45506;-86
2023/03/26 10:47:18;;;;;;;;;0.00;0.00;;;;;15.72;60.85;-19629.94;5031573;28;45482;-91
2023/03/26 10:50:01;;;;;;;;;0.00;0.00;;;;;15.74;60.70;-19630.59;5027493;28;45639;-88
2023/03/26 10:52:36;;;;;;;;;0.00;0.00;;;;;15.92;60.78;-19635.28;5024969;28;47249;-90
2023/03/26 10:55:38;;;;;;;;;0.00;0.00;;;;;16.55;60.77;-19651.63;5020938;28;45520;-89
2023/03/26 10:58:21;;;;;;;;;0.67;0.00;;;;;17.15;59.85;-19667.31;4948550;28;45891;-92
2023/03/26 11:00:55;;;;;;;;;0.00;0.00;;;;;17.48;59.72;-19676.00;4952207;28;45490;-88
2023/03/26 11:03:44;;;;;;;;;0.00;0.00;;;;;17.56;59.42;-19678.16;4952880;28;46074;-89
2023/03/26 11:06:24;;;;;;;;;0.00;0.00;;;;;17.48;58.52;-19676.00;4947200;28;45350;-88
2023/03/26 11:09:04;;;;;;;;;0.00;0.00;;;;;17.37;57.85;-19671.09;4928732;28;45475;-88
2023/03/26 11:11:43;;;;;;;;;0.33;0.00;;;;;17.36;57.85;-19670.84;4937156;28;45519;-94
2023/03/26 11:14:30;;;;;;;;;0.00;0.00;;;;;17.96;57.00;-19351.81;4948894;28;45898;-93
2023/03/26 11:17:24;;;;;;;;;0.00;0.00;;;;;18.38;55.44;-19027.50;4935477;28;45799;-93
2023/03/26 11:19:57;;;;;;;;;0.00;0.00;;;;;18.42;54.39;-17687.84;4924276;28;45602;-95
2023/03/26 11:22:45;;;;;;;;;0.00;0.00;;;;;18.45;53.38;-15341.28;4937102;28;45813;-91
2023/03/26 11:25:16;;;;;;;;;0.00;0.00;;;;;18.21;54.18;-14666.03;4939799;28;46233;-86
2023/03/26 11:28:05;;;;;;;;;0.00;0.00;;;;;17.98;54.84;-14661.94;4943485;28;45510;-87
2023/03/26 11:30:45;;;;;;;;;0.00;0.00;;;;;17.74;54.95;-13987.28;4927205;28;45540;-91
2023/03/26 11:33:17;;;;;;;;;0.00;0.00;;;;;17.67;53.63;-13315.84;5013590;28;45774;-89
2023/03/26 11:35:48;;;;;;;;;3.00;0.00;;;;;17.98;54.84;-14326.59;5010547;28;47844;-89
2023/03/26 11:38:36;;;;;;;;;0.00;0.00;;;;;18.49;54.39;-15006.69;5013384;28;45431;-91
2023/03/26 11:41:03;;;;;;;;;0.00;0.00;;;;;18.84;54.00;-14677.41;5014899;28;45537;-92
2023/03/26 11:43:34;;;;;;;;;0.00;0.00;;;;;18.85;53.38;-13670.47;5008240;28;45629;-92
2023/03/26 11:46:11;;;;;;;;;0.00;0.00;;;;;18.91;51.12;-10983.97;5024452;28;46694;-93
2023/03/26 11:48:58;;;;;;;;;0.00;0.00;;;;;18.94;48.91;-7285.75;5024576;28;45310;-93
2023/03/26 11:51:46;;;;;;;;;0.00;0.00;;;;;18.78;48.31;-3583.53;5000984;28;45339;-92
2023/03/26 11:54:12;;;;;;;;;0.00;0.00;;;;;18.53;50.26;-3919.91;4992667;28;45490;-93
2023/03/26 11:57:00;;;;;;;;;0.00;0.00;;;;;18.37;49.78;-3246.91;5023358;28;47151;-92
2023/03/26 11:59:46;;;;;;;;;0.00;0.00;;;;;18.50;50.57;-3919.88;5018228;28;45443;-94
2023/03/26 12:02:11;;;;;;;;;0.00;0.00;;;;;18.73;49.95;-3246.88;5012270;28;45344;-92
2023/03/26 12:04:42;;;;;;;;;0.00;0.00;;;;;18.87;49.84;-3920.25;5000158;28;45543;-92
2023/03/26 12:07:19;;;;;;;;;0.00;0.00;;;;;19.24;49.44;-3583.75;5017441;28;47068;-93
2023/03/26 12:09:56;;;;;;;;;0.00;0.00;;;;;18.94;48.03;-1225.84;5017773;28;45510;-92
2023/03/26 12:12:31;;;;;;;;;0.00;0.00;;;;;20.08;45.87;5872.81;5012661;28;45388;-94
2023/03/26 12:14:57;;;;;;;;;0.00;0.00;;;;;20.73;46.02;5543.88;4994138;28;45416;-93
2023/03/26 12:17:29;;;;;;;;;0.00;0.00;;;;;21.14;45.65;8260.25;4997770;28;46268;-92
2023/03/26 12:19:54;;;;;;;;;0.00;0.00;;;;;21.32;45.46;8263.56;4980032;28;45317;-91
2023/03/26 12:22:40;;;;;;;;;0.00;0.00;;;;;21.93;42.52;12349.53;4980162;28;45343;-92
2023/03/26 12:25:40;;;;;;;;;0.00;0.00;;;;;22.39;42.74;16442.63;4997244;28;45455;-93
2023/03/26 12:28:12;;;;;;;;;0.00;0.00;;;;;22.60;42.89;24287.50;4920078;28;47372;-89
2023/03/26 12:30:50;;;;;;;;;0.00;0.00;;;;;22.51;42.49;28154.50;4935606;28;45910;-94
2023/03/26 12:33:33;;;;;;;;;0.00;0.00;;;;;22.07;42.31;31031.03;4927876;28;45471;-94
2023/03/26 12:36:29;;;;;;;;;0.50;0.00;;;;;22.55;42.95;31366.88;4933333;28;45551;-93
2023/03/26 12:38:54;;;;;;;;;0.00;0.00;;;;;22.43;42.87;33851.50;4937675;28;45986;-93
2023/03/26 12:41:34;;;;;;;;;0.00;0.00;;;;;22.30;43.78;33304.53;4936772;28;45522;-95
2023/03/26 12:44:25;;;;;;;;;0.00;0.00;;;;;21.66;42.38;37448.84;4952253;28;45812;-92
2023/03/26 12:47:05;;;;;;;;;0.00;0.00;;;;;21.63;43.69;35663.41;4934177;28;45468;-93
2023/03/26 12:49:30;;;;;;;;;0.00;0.00;;;;;21.32;43.38;39126.75;4926673;28;46168;-93
2023/03/26 12:52:37;;;;;;;;;0.00;0.00;;;;;21.72;43.58;40254.69;4922536;28;45490;-91
2023/03/26 12:55:19;;;;;;;;;0.00;0.00;;;;;21.68;41.40;44291.38;4953756;28;45738;-93
2023/03/26 12:58:01;;;;;;;;;0.00;0.00;;;;;21.60;43.06;41892.25;4942756;28;45536;-93
2023/03/26 13:00:52;;;;;;;;;0.00;0.00;;;;;21.97;42.29;41959.03;4937003;28;45627;-91
2023/03/26 13:03:55;;;;;;;;;0.00;0.00;;;;;22.03;42.82;42011.63;5006166;28;45491;-90
2023/03/26 13:06:40;;;;;;;;;1.00;0.00;;;;;21.98;42.94;42722.06;5002991;28;45392;-90
2023/03/26 13:09:58;;;;;;;;;0.00;0.00;;;;;21.78;39.89;51451.22;5015382;28;45280;-92
2023/03/26 13:12:37;;;;;;;;;0.00;0.00;;;;;21.64;41.84;49957.59;4938317;28;45557;-94
2023/03/26 13:15:05;;;;;;;;;0.00;0.00;;;;;21.48;42.04;50439.50;4925404;28;45487;-92
2023/03/26 13:17:58;;;;;;;;;0.00;0.00;;;;;20.86;42.22;50712.59;4945310;28;45577;-96
2023/03/26 13:20:42;;;;;;;;;0.00;0.00;;;;;20.94;43.08;51257.13;4948208;28;45557;-91
2023/03/26 13:23:25;;;;;;;;;0.00;0.00;;;;;20.59;41.26;54001.06;4936937;28;46144;-88
2023/03/26 13:26:06;;;;;;;;;0.00;0.00;;;;;20.41;42.19;54019.34;4935072;28;45469;-88
2023/03/26 13:28:41;;;;;;;;;0.00;0.00;;;;;19.92;41.49;55517.78;4937123;28;45578;-87
2023/03/26 13:31:48;;;;;;;;;0.25;0.00;;;;;20.01;42.24;56173.47;4935771;28;45607;-88
2023/03/26 13:34:26;;;;;;;;;0.00;0.00;;;;;19.80;42.62;55412.59;4858461;29;45581;-89
2023/03/26 13:37:04;;;;;;;;;0.00;0.00;;;;;19.77;43.25;54471.63;4862818;29;45529;-93
2023/03/26 13:40:03;;;;;;;;;1.00;0.00;;;;;19.30;44.41;54136.78;4863782;29;45584;-93
2023/03/26 13:42:57;;;;;;;;;0.00;0.00;;;;;19.44;44.29;53919.28;4862247;29;45631;-95
2023/03/26 13:45:53;;;;;;;;;0.00;0.00;;;;;18.58;44.36;53397.91;4863847;29;45627;-92
2023/03/26 13:48:28;;;;;;;;;0.00;0.00;;;;;18.60;44.67;52871.09;4882902;28;45279;-91
2023/03/26 13:51:04;;;;;;;;;0.00;0.00;;;;;18.85;45.48;51744.22;4919452;28;45819;-87
2023/03/26 13:53:41;;;;;;;;;0.00;0.00;;;;;19.37;45.04;51867.78;4934555;28;45364;-88
2023/03/26 13:56:13;;;;;;;;;0.00;0.00;;;;;19.31;45.22;51945.09;4926223;28;46123;-88
2023/03/26 13:58:55;;;;;;;;;0.00;0.00;;;;;18.80;44.59;51598.31;4917175;28;45462;-88
2023/03/26 14:01:33;;;;;;;;;0.00;0.00;;;;;18.70;44.68;51712.41;4917409;28;45625;-88
2023/03/26 14:04:20;;;;;;;;;0.00;0.00;;;;;19.14;45.15;52100.50;4935304;28;45423;-88
2023/03/26 14:06:45;;;;;;;;;0.00;0.00;;;;;19.33;46.25;50406.19;4910310;28;47384;-89
2023/03/26 14:09:29;;;;;;;;;0.00;0.00;;;;;18.88;49.20;40919.22;5025335;28;45450;-89
2023/03/26 14:11:55;;;;;;;;;0.00;0.00;;;;;19.11;49.39;35599.63;5027966;28;45432;-89
2023/03/26 14:14:47;;;;;;;;;1.00;0.00;;;;;19.00;51.17;22433.66;5011357;28;45602;-88
2023/03/26 14:17:25;;;;;;;;;0.00;0.00;;;;;18.24;52.79;13270.59;5034648;28;46560;-88
2023/03/26 14:20:09;;;;;;;;;0.00;0.00;;;;;18.74;53.08;11255.91;5011830;28;45460;-87
2023/03/26 14:23:12;;;;;;;;;0.00;0.00;;;;;18.57;52.91;11252.00;5029716;28;45412;-89
2023/03/26 14:25:40;;;;;;;;;1.00;0.00;;;;;18.43;53.14;10573.25;5007956;28;45320;-88
2023/03/26 14:28:35;;;;;;;;;0.00;0.00;;;;;17.96;52.91;10900.25;5009338;28;47914;-90
2023/03/26 14:31:18;;;;;;;;;0.00;0.00;;;;;18.14;53.12;12255.00;4966097;28;45624;-90
2023/03/26 14:34:03;;;;;;;;;0.00;0.00;;;;;17.50;53.44;11901.69;4959502;28;45564;-91
2023/03/26 14:36:57;;;;;;;;;0.00;0.00;;;;;17.99;53.94;8876.66;4958043;28;45512;-91
2023/03/26 14:39:47;;;;;;;;;0.00;0.00;;;;;18.00;54.71;6179.47;4959008;28;45858;-90
2023/03/26 14:42:34;;;;;;;;;0.00;0.00;;;;;17.75;54.27;6512.63;4965687;28;45958;-87
2023/03/26 14:45:37;;;;;;;;;0.00;0.00;;;;;17.00;54.48;5491.41;4962838;28;45412;-84
2023/03/26 14:48:36;;;;;;;;;0.00;0.00;;;;;18.04;54.68;5168.94;4943612;28;45476;-87
2023/03/26 14:51:17;;;;;;;;;0.00;0.00;;;;;18.04;54.66;4158.06;4976258;28;45540;-90
2023/03/26 14:53:47;;;;;;;;;0.00;0.00;;;;;17.13;53.98;5493.09;4965929;28;45544;-96
2023/03/26 14:56:13;;;;;;;;;0.00;0.00;;;;;18.01;53.93;6179.53;4971672;28;45425;-88
2023/03/26 14:59:31;;;;;;;;;0.00;0.00;;;;;17.95;54.22;6515.66;4970205;28;45546;-87
2023/03/26 15:05:55;;;;;;;;;0.00;0.00;;;;;17.81;54.00;7187.53;4965502;28;45707;-89
2023/03/26 15:08:33;;;;;;;;;0.00;0.00;;;;;17.76;53.85;8197.97;4996151;28;45218;-91
2023/03/26 15:11:23;;;;;;;;;0.00;0.00;;;;;17.70;53.76;8196.84;5024408;28;45551;-90
2023/03/26 15:14:09;;;;;;;;;0.00;0.00;;;;;17.47;53.62;9203.63;5025471;28;47499;-91
2023/03/26 15:16:57;;;;;;;;;0.00;0.00;;;;;17.59;53.04;10217.56;5012678;28;45623;-89
2023/03/26 15:19:23;;;;;;;;;0.00;0.00;;;;;17.54;52.66;11565.25;5031727;28;45413;-94
2023/03/26 15:22:13;;;;;;;;;0.00;0.00;;;;;17.46;52.54;12575.31;5027070;28;45551;-92
2023/03/26 15:25:00;;;;;;;;;5.33;5.00;;;;;17.35;52.36;14259.31;5031003;28;45483;-89
2023/03/26 15:27:53;;;;;;;;;3.00;3.00;;;;;17.30;52.78;13245.97;5014580;28;45345;-88
2023/03/26 15:30:47;;;;;;;;;0.00;0.00;;;;;17.29;52.91;13583.03;5017396;28;45390;-89
2023/03/26 15:33:33;;;;;;;;;1.00;0.00;;;;;17.32;52.63;13583.56;5020464;28;45550;-88
2023/03/26 15:36:37;;;;;;;;;0.00;0.00;;;;;17.33;52.84;13584.00;5023979;28;46194;-88
2023/03/26 15:39:22;;;;;;;;;0.00;0.00;;;;;17.35;52.53;13584.53;5029644;28;45452;-89
2023/03/26 15:42:15;;;;;;;;;0.00;0.00;;;;;17.35;51.96;15609.09;5011960;28;45492;-89
2023/03/26 15:44:52;;;;;;;;;0.00;0.00;;;;;17.34;50.37;17972.22;5010836;28;46079;-90
2023/03/26 15:47:32;;;;;;;;;0.00;0.00;;;;;17.22;51.86;17293.09;5016624;28;46184;-89
2023/03/26 15:50:01;;;;;;;;;0.00;0.00;;;;;17.29;51.83;16957.66;5001517;28;45456;-88
2023/03/26 15:52:46;;;;;;;;;0.00;0.00;;;;;17.01;52.12;16611.25;5007598;28;45620;-88
2023/03/26 15:55:15;;;;;;;;;0.00;0.00;;;;;17.24;52.31;17293.59;5032965;28;45622;-87
2023/03/26 15:58:16;;;;;;;;;0.00;0.00;;;;;17.19;52.35;16954.34;5020193;28;47351;-88
2023/03/26 16:01:17;;;;;;;;;0.00;0.00;;;;;17.09;52.53;16613.84;5011389;28;45617;-87
2023/03/26 16:04:08;;;;;;;;;0.00;0.00;;;;;17.00;52.51;17285.69;5015483;28;45557;-83
2023/03/26 16:06:40;;;;;;;;;0.00;0.00;;;;;16.90;52.84;17282.50;5022636;28;45477;-86
2023/03/26 16:09:28;;;;;;;;;0.00;0.00;;;;;16.81;52.72;17617.03;5012497;28;46324;-88
2023/03/26 16:11:57;;;;;;;;;0.00;0.00;;;;;16.71;53.01;17276.25;5004303;28;45487;-89
2023/03/26 16:14:41;;;;;;;;;0.00;0.00;;;;;16.71;53.37;17276.09;5019827;28;46202;-90
2023/03/26 16:17:12;;;;;;;;;0.00;0.00;;;;;16.66;53.20;17611.91;5022757;28;45530;-88
2023/03/26 16:19:54;;;;;;;;;0.00;0.00;;;;;16.61;53.43;17273.06;5003232;28;46170;-87
2023/03/26 16:22:41;;;;;;;;;0.00;0.00;;;;;16.57;53.50;16597.06;5015562;28;45417;-88
2023/03/26 16:25:15;;;;;;;;;0.00;0.00;;;;;16.53;54.10;15247.28;5015058;28;45819;-88
2023/03/26 16:27:45;;;;;;;;;0.00;0.00;;;;;16.45;54.60;13897.16;5010228;28;45678;-88
2023/03/26 16:30:31;;;;;;;;;0.00;0.00;;;;;16.39;55.68;10528.31;5002656;28;47697;-86
2023/03/26 16:33:08;;;;;;;;;0.00;0.00;;;;;15.36;55.75;8490.03;5003148;28;45977;-88
2023/03/26 16:35:52;;;;;;;;;0.00;0.00;;;;;15.32;56.69;7146.19;5003718;28;45676;-89
2023/03/26 16:38:23;;;;;;;;;0.00;0.00;;;;;15.96;56.94;2454.81;5016034;28;46947;-88
2023/03/26 16:41:16;;;;;;;;;0.00;0.00;;;;;16.33;57.41;2122.38;5018031;28;45550;-88
2023/03/26 16:44:26;;;;;;;;;0.00;0.00;;;;;16.29;57.89;779.06;5009081;28;45546;-87
2023/03/26 16:47:03;;;;;;;;;0.00;0.00;;;;;16.25;57.89;778.84;4935929;28;45509;-89
2023/03/26 16:49:44;;;;;;;;;0.00;0.00;;;;;16.21;58.01;-228.19;4951007;28;45671;-88
2023/03/26 16:52:20;;;;;;;;;0.00;0.00;;;;;16.18;57.97;-899.34;4933824;28;47781;-89
2023/03/26 16:55:21;;;;;;;;;0.00;0.00;;;;;16.13;58.17;-564.09;4936548;28;45826;-90
2023/03/26 16:57:54;;;;;;;;;0.00;0.00;;;;;16.09;57.84;-899.69;4941931;28;45548;-90
2023/03/26 17:00:33;;;;;;;;;0.00;0.00;;;;;16.04;58.40;-1570.63;4933473;28;45509;-90
2023/03/26 17:03:17;;;;;;;;;0.00;0.00;;;;;16.00;58.46;-2241.31;4938373;28;48477;-89
2023/03/26 17:05:56;;;;;;;;;0.00;0.00;;;;;15.94;58.49;-2576.63;4901887;28;45958;-90
2023/03/26 17:08:52;;;;;;;;;0.00;0.00;;;;;15.90;58.80;-2911.84;4926105;28;45448;-87
2023/03/26 17:11:48;;;;;;;;;0.00;0.00;;;;;15.96;58.61;-2911.78;4941526;28;45488;-89
2023/03/26 17:14:37;;;;;;;;;0.00;0.00;;;;;15.94;58.37;-2911.81;4944940;28;47134;-92
2023/03/26 17:17:20;;;;;;;;;0.00;0.00;;;;;15.92;58.82;-3246.97;4950788;23;45479;-89
2023/03/26 17:20:24;;;;;;;;;0.00;0.00;;;;;15.88;58.60;-2911.84;4962647;28;45527;-94
2023/03/26 17:23:03;;;;;;;;;0.00;0.00;;;;;15.82;59.04;-3246.97;4974186;28;45504;-90
2023/03/26 17:25:43;;;;;;;;;0.00;0.00;;;;;15.78;58.47;-2576.78;4959042;28;47348;-89
2023/03/26 17:28:11;;;;;;;;;0.00;0.00;;;;;15.74;58.65;-2911.91;4976127;28;45517;-92
2023/03/26 17:30:52;;;;;;;;;0.00;0.00;;;;;15.71;58.27;-2241.75;4959810;28;45368;-88
2023/03/26 17:33:37;;;;;;;;;0.00;0.00;;;;;15.34;58.09;-1572.47;4956920;28;45575;-92